sensor_id;sensor_type;location;lat;lon;timestamp;P1;durP1;ratioP1;P2;durP2;ratioP2
38226;SDS011;24026;49.446;8.576;2022-12-07T00:01:13;129.68;;;115.18;;
38226;SDS011;24026;49.446;8.576;2022-12-07T00:03:36;130.55;;;114.18;;
38226;SDS011;24026;49.446;8.576;2022-12-07T00:05:58;130.07;;;115.07;;
38226;SDS011;24026;49.446;8.576;2022-12-07T00:08:18;131.98;;;115.75;;
38226;SDS011;24026;49.446;8.576;2022-12-07T00:10:39;130.55;;;115.43;;
38226;SDS011;24026;49.446;8.576;2022-12-07T00:12:59;130.90;;;115.07;;
38226;SDS011;24026;49.446;8.576;2022-12-07T00:15:20;130.45;;;114.43;;
38226;SDS011;24026;49.446;8.576;2022-12-07T00:17:41;131.02;;;116.13;;
38226;SDS011;24026;49.446;8.576;2022-12-07T00:20:01;129.57;;;114.50;;
38226;SDS011;24026;49.446;8.576;2022-12-07T00:22:21;131.55;;;115.43;;
38226;SDS011;24026;49.446;8.576;2022-12-07T00:24:42;131.63;;;114.55;;
38226;SDS011;24026;49.446;8.576;2022-12-07T00:27:02;130.18;;;114.60;;
38226;SDS011;24026;49.446;8.576;2022-12-07T00:29:23;131.27;;;115.07;;
38226;SDS011;24026;49.446;8.576;2022-12-07T00:31:43;130.23;;;115.15;;
38226;SDS011;24026;49.446;8.576;2022-12-07T00:34:05;130.85;;;115.45;;
38226;SDS011;24026;49.446;8.576;2022-12-07T00:36:26;131.18;;;115.05;;
38226;SDS011;24026;49.446;8.576;2022-12-07T00:38:47;130.93;;;115.00;;
38226;SDS011;24026;49.446;8.576;2022-12-07T00:41:12;130.55;;;115.82;;
38226;SDS011;24026;49.446;8.576;2022-12-07T00:43:34;130.27;;;115.00;;
38226;SDS011;24026;49.446;8.576;2022-12-07T00:45:54;130.93;;;115.00;;
38226;SDS011;24026;49.446;8.576;2022-12-07T00:48:15;130.77;;;114.80;;
38226;SDS011;24026;49.446;8.576;2022-12-07T00:50:35;129.05;;;114.20;;
38226;SDS011;24026;49.446;8.576;2022-12-07T00:52:55;129.38;;;114.10;;
38226;SDS011;24026;49.446;8.576;2022-12-07T00:55:16;129.75;;;114.35;;
38226;SDS011;24026;49.446;8.576;2022-12-07T00:57:36;130.00;;;114.80;;
38226;SDS011;24026;49.446;8.576;2022-12-07T00:59:57;129.88;;;114.50;;
38226;SDS011;24026;49.446;8.576;2022-12-07T01:02:17;129.98;;;115.30;;
38226;SDS011;24026;49.446;8.576;2022-12-07T01:04:38;129.27;;;113.55;;
38226;SDS011;24026;49.446;8.576;2022-12-07T01:06:58;129.63;;;113.35;;
38226;SDS011;24026;49.446;8.576;2022-12-07T01:09:18;130.77;;;114.85;;
38226;SDS011;24026;49.446;8.576;2022-12-07T01:11:39;130.07;;;114.72;;
38226;SDS011;24026;49.446;8.576;2022-12-07T01:13:59;130.85;;;115.05;;
38226;SDS011;24026;49.446;8.576;2022-12-07T01:16:21;129.52;;;114.93;;
38226;SDS011;24026;49.446;8.576;2022-12-07T01:18:45;130.27;;;115.45;;
38226;SDS011;24026;49.446;8.576;2022-12-07T01:21:09;129.63;;;114.18;;
38226;SDS011;24026;49.446;8.576;2022-12-07T01:23:34;129.07;;;113.63;;
38226;SDS011;24026;49.446;8.576;2022-12-07T01:25:59;130.18;;;114.30;;
38226;SDS011;24026;49.446;8.576;2022-12-07T01:28:22;130.23;;;114.73;;
38226;SDS011;24026;49.446;8.576;2022-12-07T01:30:43;129.52;;;113.75;;
38226;SDS011;24026;49.446;8.576;2022-12-07T01:33:03;129.73;;;114.40;;
38226;SDS011;24026;49.446;8.576;2022-12-07T01:35:23;130.35;;;115.80;;
38226;SDS011;24026;49.446;8.576;2022-12-07T01:37:44;130.18;;;114.80;;
38226;SDS011;24026;49.446;8.576;2022-12-07T01:40:05;129.40;;;114.53;;
38226;SDS011;24026;49.446;8.576;2022-12-07T01:42:27;130.38;;;113.65;;
38226;SDS011;24026;49.446;8.576;2022-12-07T01:47:46;129.98;;;114.20;;
38226;SDS011;24026;49.446;8.576;2022-12-07T01:50:11;130.52;;;113.90;;
38226;SDS011;24026;49.446;8.576;2022-12-07T01:52:33;131.23;;;114.55;;
38226;SDS011;24026;49.446;8.576;2022-12-07T01:54:56;130.73;;;114.32;;
38226;SDS011;24026;49.446;8.576;2022-12-07T01:57:25;129.93;;;114.20;;
38226;SDS011;24026;49.446;8.576;2022-12-07T01:59:47;128.55;;;113.55;;
38226;SDS011;24026;49.446;8.576;2022-12-07T02:02:13;129.35;;;113.85;;
38226;SDS011;24026;49.446;8.576;2022-12-07T02:04:42;130.18;;;114.43;;
38226;SDS011;24026;49.446;8.576;2022-12-07T02:07:04;129.80;;;114.03;;
38226;SDS011;24026;49.446;8.576;2022-12-07T02:09:25;130.98;;;115.93;;
38226;SDS011;24026;49.446;8.576;2022-12-07T02:11:45;129.82;;;113.90;;
38226;SDS011;24026;49.446;8.576;2022-12-07T02:14:06;129.05;;;113.78;;
38226;SDS011;24026;49.446;8.576;2022-12-07T02:29:40;130.65;;;114.53;;
38226;SDS011;24026;49.446;8.576;2022-12-07T02:32:08;129.80;;;114.50;;
38226;SDS011;24026;49.446;8.576;2022-12-07T02:37:34;129.90;;;112.23;;
38226;SDS011;24026;49.446;8.576;2022-12-07T02:39:58;131.57;;;113.80;;
38226;SDS011;24026;49.446;8.576;2022-12-07T02:42:26;129.38;;;112.78;;
38226;SDS011;24026;49.446;8.576;2022-12-07T02:44:52;129.60;;;113.93;;
38226;SDS011;24026;49.446;8.576;2022-12-07T02:47:13;129.77;;;114.22;;
38226;SDS011;24026;49.446;8.576;2022-12-07T02:49:37;130.35;;;114.10;;
38226;SDS011;24026;49.446;8.576;2022-12-07T02:51:59;130.05;;;113.88;;
38226;SDS011;24026;49.446;8.576;2022-12-07T02:54:20;127.95;;;112.53;;
38226;SDS011;24026;49.446;8.576;2022-12-07T03:07:24;128.63;;;112.57;;
38226;SDS011;24026;49.446;8.576;2022-12-07T03:09:52;130.57;;;114.22;;
38226;SDS011;24026;49.446;8.576;2022-12-07T03:12:29;129.63;;;113.32;;
38226;SDS011;24026;49.446;8.576;2022-12-07T03:14:55;129.07;;;112.85;;
38226;SDS011;24026;49.446;8.576;2022-12-07T03:17:26;128.40;;;112.97;;
38226;SDS011;24026;49.446;8.576;2022-12-07T03:19:50;130.15;;;114.35;;
38226;SDS011;24026;49.446;8.576;2022-12-07T03:22:15;129.82;;;112.90;;
38226;SDS011;24026;49.446;8.576;2022-12-07T03:24:40;129.38;;;111.20;;
38226;SDS011;24026;49.446;8.576;2022-12-07T03:27:14;130.38;;;114.25;;
38226;SDS011;24026;49.446;8.576;2022-12-07T03:29:43;130.60;;;114.57;;
38226;SDS011;24026;49.446;8.576;2022-12-07T03:32:14;129.30;;;113.50;;
38226;SDS011;24026;49.446;8.576;2022-12-07T03:34:46;129.68;;;113.45;;
38226;SDS011;24026;49.446;8.576;2022-12-07T03:37:12;129.55;;;113.43;;
38226;SDS011;24026;49.446;8.576;2022-12-07T03:39:45;131.05;;;114.05;;
38226;SDS011;24026;49.446;8.576;2022-12-07T03:42:26;129.10;;;112.93;;
38226;SDS011;24026;49.446;8.576;2022-12-07T03:44:47;129.38;;;113.15;;
38226;SDS011;24026;49.446;8.576;2022-12-07T03:47:13;129.43;;;113.63;;
38226;SDS011;24026;49.446;8.576;2022-12-07T03:52:11;128.30;;;113.05;;
38226;SDS011;24026;49.446;8.576;2022-12-07T03:57:05;129.82;;;112.15;;
38226;SDS011;24026;49.446;8.576;2022-12-07T03:59:28;128.57;;;110.88;;
38226;SDS011;24026;49.446;8.576;2022-12-07T04:01:53;128.70;;;112.05;;
38226;SDS011;24026;49.446;8.576;2022-12-07T04:04:16;128.33;;;111.87;;
38226;SDS011;24026;49.446;8.576;2022-12-07T04:06:37;129.27;;;113.78;;
38226;SDS011;24026;49.446;8.576;2022-12-07T04:08:57;129.52;;;113.07;;
38226;SDS011;24026;49.446;8.576;2022-12-07T04:11:18;129.20;;;113.72;;
38226;SDS011;24026;49.446;8.576;2022-12-07T04:13:38;128.80;;;113.10;;
38226;SDS011;24026;49.446;8.576;2022-12-07T04:16:17;129.45;;;111.20;;
38226;SDS011;24026;49.446;8.576;2022-12-07T04:18:37;129.73;;;114.13;;
38226;SDS011;24026;49.446;8.576;2022-12-07T04:20:58;128.65;;;113.43;;
38226;SDS011;24026;49.446;8.576;2022-12-07T04:23:18;128.70;;;112.88;;
38226;SDS011;24026;49.446;8.576;2022-12-07T04:25:38;129.43;;;114.18;;
38226;SDS011;24026;49.446;8.576;2022-12-07T04:27:59;128.65;;;112.78;;
38226;SDS011;24026;49.446;8.576;2022-12-07T04:30:19;128.70;;;113.28;;
38226;SDS011;24026;49.446;8.576;2022-12-07T04:32:40;129.70;;;113.78;;
38226;SDS011;24026;49.446;8.576;2022-12-07T04:35:00;128.75;;;111.35;;
38226;SDS011;24026;49.446;8.576;2022-12-07T04:37:20;129.60;;;114.38;;
38226;SDS011;24026;49.446;8.576;2022-12-07T04:39:41;128.13;;;112.10;;
38226;SDS011;24026;49.446;8.576;2022-12-07T04:42:03;129.70;;;113.22;;
38226;SDS011;24026;49.446;8.576;2022-12-07T04:44:24;129.20;;;113.50;;
38226;SDS011;24026;49.446;8.576;2022-12-07T04:46:45;127.82;;;110.13;;
38226;SDS011;24026;49.446;8.576;2022-12-07T04:49:06;129.30;;;113.60;;
38226;SDS011;24026;49.446;8.576;2022-12-07T04:51:28;129.20;;;113.72;;
38226;SDS011;24026;49.446;8.576;2022-12-07T04:53:49;128.07;;;113.13;;
38226;SDS011;24026;49.446;8.576;2022-12-07T04:56:10;129.00;;;113.70;;
38226;SDS011;24026;49.446;8.576;2022-12-07T04:58:30;129.15;;;113.80;;
38226;SDS011;24026;49.446;8.576;2022-12-07T05:00:53;130.05;;;111.80;;
38226;SDS011;24026;49.446;8.576;2022-12-07T05:03:14;128.32;;;112.57;;
38226;SDS011;24026;49.446;8.576;2022-12-07T05:05:34;129.45;;;113.00;;
38226;SDS011;24026;49.446;8.576;2022-12-07T05:07:55;130.27;;;114.82;;
38226;SDS011;24026;49.446;8.576;2022-12-07T05:10:15;129.85;;;113.93;;
38226;SDS011;24026;49.446;8.576;2022-12-07T05:12:36;129.18;;;113.15;;
38226;SDS011;24026;49.446;8.576;2022-12-07T05:14:57;128.82;;;113.45;;
38226;SDS011;24026;49.446;8.576;2022-12-07T05:17:17;128.73;;;112.57;;
38226;SDS011;24026;49.446;8.576;2022-12-07T05:19:37;128.23;;;111.93;;
38226;SDS011;24026;49.446;8.576;2022-12-07T05:21:58;129.75;;;115.22;;
38226;SDS011;24026;49.446;8.576;2022-12-07T05:24:18;129.63;;;114.75;;
38226;SDS011;24026;49.446;8.576;2022-12-07T05:26:38;127.95;;;109.80;;
38226;SDS011;24026;49.446;8.576;2022-12-07T05:28:59;129.80;;;114.80;;
38226;SDS011;24026;49.446;8.576;2022-12-07T05:31:20;129.95;;;114.05;;
38226;SDS011;24026;49.446;8.576;2022-12-07T05:33:41;128.27;;;111.22;;
38226;SDS011;24026;49.446;8.576;2022-12-07T05:36:01;132.88;;;117.93;;
38226;SDS011;24026;49.446;8.576;2022-12-07T05:38:25;130.05;;;114.47;;
38226;SDS011;24026;49.446;8.576;2022-12-07T05:40:47;128.90;;;112.22;;
38226;SDS011;24026;49.446;8.576;2022-12-07T05:43:07;129.50;;;114.50;;
38226;SDS011;24026;49.446;8.576;2022-12-07T05:45:29;128.95;;;112.82;;
38226;SDS011;24026;49.446;8.576;2022-12-07T05:47:49;130.50;;;114.97;;
38226;SDS011;24026;49.446;8.576;2022-12-07T05:50:10;129.43;;;114.30;;
38226;SDS011;24026;49.446;8.576;2022-12-07T05:52:30;129.85;;;114.68;;
38226;SDS011;24026;49.446;8.576;2022-12-07T05:54:51;129.95;;;112.50;;
38226;SDS011;24026;49.446;8.576;2022-12-07T05:57:13;129.82;;;114.75;;
38226;SDS011;24026;49.446;8.576;2022-12-07T05:59:33;130.20;;;114.97;;
38226;SDS011;24026;49.446;8.576;2022-12-07T06:01:59;130.82;;;115.57;;
38226;SDS011;24026;49.446;8.576;2022-12-07T06:04:30;131.15;;;115.57;;
38226;SDS011;24026;49.446;8.576;2022-12-07T06:06:56;131.43;;;115.45;;
38226;SDS011;24026;49.446;8.576;2022-12-07T06:09:18;130.40;;;115.18;;
38226;SDS011;24026;49.446;8.576;2022-12-07T06:11:39;131.35;;;116.82;;
38226;SDS011;24026;49.446;8.576;2022-12-07T06:14:20;129.93;;;113.13;;
38226;SDS011;24026;49.446;8.576;2022-12-07T06:16:40;132.77;;;118.07;;
38226;SDS011;24026;49.446;8.576;2022-12-07T06:19:01;132.98;;;116.65;;
38226;SDS011;24026;49.446;8.576;2022-12-07T06:21:23;136.63;;;118.93;;
38226;SDS011;24026;49.446;8.576;2022-12-07T06:23:47;135.23;;;118.63;;
38226;SDS011;24026;49.446;8.576;2022-12-07T06:26:09;141.95;;;126.68;;
38226;SDS011;24026;49.446;8.576;2022-12-07T06:28:30;140.73;;;124.70;;
38226;SDS011;24026;49.446;8.576;2022-12-07T06:31:01;138.95;;;123.88;;
38226;SDS011;24026;49.446;8.576;2022-12-07T06:33:23;141.48;;;126.28;;
38226;SDS011;24026;49.446;8.576;2022-12-07T06:35:45;142.45;;;127.15;;
38226;SDS011;24026;49.446;8.576;2022-12-07T06:38:06;143.48;;;127.47;;
38226;SDS011;24026;49.446;8.576;2022-12-07T06:40:28;142.35;;;126.95;;
38226;SDS011;24026;49.446;8.576;2022-12-07T06:42:49;136.98;;;121.97;;
38226;SDS011;24026;49.446;8.576;2022-12-07T06:45:10;139.38;;;122.50;;
38226;SDS011;24026;49.446;8.576;2022-12-07T06:47:32;138.80;;;123.65;;
38226;SDS011;24026;49.446;8.576;2022-12-07T06:49:53;137.63;;;119.97;;
38226;SDS011;24026;49.446;8.576;2022-12-07T06:52:14;258.67;;;232.98;;
38226;SDS011;24026;49.446;8.576;2022-12-07T06:54:34;301.00;;;269.60;;
38226;SDS011;24026;49.446;8.576;2022-12-07T06:56:55;230.27;;;206.02;;
38226;SDS011;24026;49.446;8.576;2022-12-07T06:59:17;176.57;;;157.27;;
38226;SDS011;24026;49.446;8.576;2022-12-07T07:01:45;169.48;;;151.10;;
38226;SDS011;24026;49.446;8.576;2022-12-07T07:04:07;166.93;;;148.73;;
38226;SDS011;24026;49.446;8.576;2022-12-07T07:06:27;158.95;;;141.73;;
38226;SDS011;24026;49.446;8.576;2022-12-07T07:08:49;161.38;;;144.07;;
38226;SDS011;24026;49.446;8.576;2022-12-07T07:11:09;155.02;;;138.00;;
38226;SDS011;24026;49.446;8.576;2022-12-07T07:13:32;152.93;;;136.45;;
38226;SDS011;24026;49.446;8.576;2022-12-07T07:15:53;150.02;;;133.77;;
38226;SDS011;24026;49.446;8.576;2022-12-07T07:18:15;144.43;;;128.50;;
38226;SDS011;24026;49.446;8.576;2022-12-07T07:20:36;152.55;;;135.88;;
38226;SDS011;24026;49.446;8.576;2022-12-07T07:22:57;148.63;;;132.43;;
38226;SDS011;24026;49.446;8.576;2022-12-07T07:25:19;145.65;;;129.85;;
38226;SDS011;24026;49.446;8.576;2022-12-07T07:27:41;145.52;;;129.93;;
38226;SDS011;24026;49.446;8.576;2022-12-07T07:30:02;145.52;;;129.63;;
38226;SDS011;24026;49.446;8.576;2022-12-07T07:32:23;145.75;;;130.05;;
38226;SDS011;24026;49.446;8.576;2022-12-07T07:34:43;145.52;;;129.73;;
38226;SDS011;24026;49.446;8.576;2022-12-07T07:37:04;148.23;;;131.23;;
38226;SDS011;24026;49.446;8.576;2022-12-07T07:39:26;145.43;;;129.77;;
38226;SDS011;24026;49.446;8.576;2022-12-07T07:41:47;147.43;;;130.77;;
38226;SDS011;24026;49.446;8.576;2022-12-07T07:44:09;146.55;;;130.35;;
38226;SDS011;24026;49.446;8.576;2022-12-07T07:46:30;143.75;;;128.18;;
38226;SDS011;24026;49.446;8.576;2022-12-07T07:48:53;146.98;;;130.98;;
38226;SDS011;24026;49.446;8.576;2022-12-07T07:51:14;144.73;;;128.75;;
38226;SDS011;24026;49.446;8.576;2022-12-07T07:53:34;147.20;;;131.07;;
38226;SDS011;24026;49.446;8.576;2022-12-07T07:55:56;146.68;;;130.75;;
38226;SDS011;24026;49.446;8.576;2022-12-07T07:58:18;145.13;;;129.70;;
38226;SDS011;24026;49.446;8.576;2022-12-07T08:00:38;144.68;;;129.18;;
38226;SDS011;24026;49.446;8.576;2022-12-07T08:03:02;146.00;;;130.05;;
38226;SDS011;24026;49.446;8.576;2022-12-07T08:05:26;143.85;;;128.30;;
38226;SDS011;24026;49.446;8.576;2022-12-07T08:07:48;147.23;;;131.10;;
38226;SDS011;24026;49.446;8.576;2022-12-07T08:10:10;147.57;;;129.98;;
38226;SDS011;24026;49.446;8.576;2022-12-07T08:12:35;145.57;;;129.52;;
38226;SDS011;24026;49.446;8.576;2022-12-07T08:14:58;144.55;;;128.90;;
38226;SDS011;24026;49.446;8.576;2022-12-07T08:17:20;146.88;;;127.97;;
38226;SDS011;24026;49.446;8.576;2022-12-07T08:19:40;143.93;;;128.43;;
38226;SDS011;24026;49.446;8.576;2022-12-07T08:22:01;146.98;;;130.82;;
38226;SDS011;24026;49.446;8.576;2022-12-07T08:24:24;144.90;;;129.10;;
38226;SDS011;24026;49.446;8.576;2022-12-07T08:26:46;142.40;;;126.93;;
38226;SDS011;24026;49.446;8.576;2022-12-07T08:29:06;144.68;;;128.63;;
38226;SDS011;24026;49.446;8.576;2022-12-07T08:31:28;141.32;;;126.15;;
38226;SDS011;24026;49.446;8.576;2022-12-07T08:33:48;141.02;;;125.60;;
38226;SDS011;24026;49.446;8.576;2022-12-07T08:36:11;142.80;;;127.70;;
38226;SDS011;24026;49.446;8.576;2022-12-07T08:38:34;142.70;;;127.55;;
38226;SDS011;24026;49.446;8.576;2022-12-07T08:40:56;141.77;;;126.20;;
38226;SDS011;24026;49.446;8.576;2022-12-07T08:43:18;141.80;;;126.40;;
38226;SDS011;24026;49.446;8.576;2022-12-07T08:45:40;142.00;;;126.53;;
38226;SDS011;24026;49.446;8.576;2022-12-07T08:48:05;141.77;;;126.20;;
38226;SDS011;24026;49.446;8.576;2022-12-07T08:50:32;141.20;;;125.20;;
38226;SDS011;24026;49.446;8.576;2022-12-07T08:52:56;140.80;;;125.43;;
38226;SDS011;24026;49.446;8.576;2022-12-07T08:55:19;139.80;;;124.22;;
38226;SDS011;24026;49.446;8.576;2022-12-07T08:57:40;143.23;;;127.50;;
38226;SDS011;24026;49.446;8.576;2022-12-07T09:00:04;143.85;;;128.27;;
38226;SDS011;24026;49.446;8.576;2022-12-07T09:02:26;142.95;;;127.43;;
38226;SDS011;24026;49.446;8.576;2022-12-07T09:04:48;143.25;;;128.05;;
38226;SDS011;24026;49.446;8.576;2022-12-07T09:07:10;143.60;;;127.80;;
38226;SDS011;24026;49.446;8.576;2022-12-07T09:09:32;143.45;;;127.85;;
38226;SDS011;24026;49.446;8.576;2022-12-07T09:11:52;143.23;;;127.90;;
38226;SDS011;24026;49.446;8.576;2022-12-07T09:14:15;140.35;;;124.95;;
38226;SDS011;24026;49.446;8.576;2022-12-07T09:16:38;143.40;;;127.78;;
38226;SDS011;24026;49.446;8.576;2022-12-07T09:19:00;144.13;;;128.27;;
38226;SDS011;24026;49.446;8.576;2022-12-07T09:21:21;143.05;;;127.68;;
38226;SDS011;24026;49.446;8.576;2022-12-07T09:23:42;143.77;;;127.78;;
38226;SDS011;24026;49.446;8.576;2022-12-07T09:26:04;143.90;;;128.25;;
38226;SDS011;24026;49.446;8.576;2022-12-07T09:28:24;142.70;;;127.38;;
38226;SDS011;24026;49.446;8.576;2022-12-07T09:30:46;145.43;;;128.95;;
38226;SDS011;24026;49.446;8.576;2022-12-07T09:33:07;145.18;;;129.57;;
38226;SDS011;24026;49.446;8.576;2022-12-07T09:35:28;142.98;;;127.45;;
38226;SDS011;24026;49.446;8.576;2022-12-07T09:37:48;143.30;;;127.80;;
38226;SDS011;24026;49.446;8.576;2022-12-07T09:40:09;158.88;;;130.40;;
38226;SDS011;24026;49.446;8.576;2022-12-07T09:42:38;158.38;;;129.82;;
38226;SDS011;24026;49.446;8.576;2022-12-07T09:45:01;161.38;;;128.68;;
38226;SDS011;24026;49.446;8.576;2022-12-07T09:47:26;154.65;;;126.53;;
38226;SDS011;24026;49.446;8.576;2022-12-07T09:49:49;147.55;;;128.95;;
38226;SDS011;24026;49.446;8.576;2022-12-07T09:52:20;147.30;;;128.27;;
38226;SDS011;24026;49.446;8.576;2022-12-07T09:54:47;143.50;;;127.57;;
38226;SDS011;24026;49.446;8.576;2022-12-07T09:57:11;142.68;;;126.97;;
38226;SDS011;24026;49.446;8.576;2022-12-07T09:59:33;143.23;;;127.28;;
38226;SDS011;24026;49.446;8.576;2022-12-07T10:01:55;141.82;;;126.20;;
38226;SDS011;24026;49.446;8.576;2022-12-07T10:04:46;142.27;;;123.03;;
38226;SDS011;24026;49.446;8.576;2022-12-07T10:07:07;140.73;;;124.53;;
38226;SDS011;24026;49.446;8.576;2022-12-07T10:09:28;143.35;;;126.25;;
38226;SDS011;24026;49.446;8.576;2022-12-07T10:12:06;140.48;;;124.93;;
38226;SDS011;24026;49.446;8.576;2022-12-07T10:14:31;143.63;;;126.45;;
38226;SDS011;24026;49.446;8.576;2022-12-07T10:16:53;140.75;;;124.78;;
38226;SDS011;24026;49.446;8.576;2022-12-07T10:19:27;140.02;;;124.63;;
38226;SDS011;24026;49.446;8.576;2022-12-07T10:24:36;139.15;;;123.85;;
38226;SDS011;24026;49.446;8.576;2022-12-07T10:27:00;142.35;;;123.47;;
38226;SDS011;24026;49.446;8.576;2022-12-07T10:29:28;140.98;;;125.78;;
38226;SDS011;24026;49.446;8.576;2022-12-07T10:31:54;142.65;;;127.00;;
38226;SDS011;24026;49.446;8.576;2022-12-07T10:34:27;148.98;;;124.93;;
38226;SDS011;24026;49.446;8.576;2022-12-07T10:36:51;143.52;;;126.18;;
38226;SDS011;24026;49.446;8.576;2022-12-07T10:39:21;148.55;;;126.85;;
38226;SDS011;24026;49.446;8.576;2022-12-07T10:41:56;144.90;;;126.57;;
38226;SDS011;24026;49.446;8.576;2022-12-07T10:44:21;141.30;;;126.05;;
38226;SDS011;24026;49.446;8.576;2022-12-07T10:46:50;143.23;;;127.82;;
38226;SDS011;24026;49.446;8.576;2022-12-07T10:53:07;142.15;;;126.72;;
38226;SDS011;24026;49.446;8.576;2022-12-07T10:58:23;144.57;;;129.23;;
38226;SDS011;24026;49.446;8.576;2022-12-07T11:03:33;148.57;;;132.88;;
38226;SDS011;24026;49.446;8.576;2022-12-07T11:07:10;148.93;;;132.13;;
38226;SDS011;24026;49.446;8.576;2022-12-07T11:17:20;149.13;;;133.43;;
38226;SDS011;24026;49.446;8.576;2022-12-07T11:22:51;149.10;;;133.40;;
38226;SDS011;24026;49.446;8.576;2022-12-07T11:39:26;145.00;;;129.80;;
38226;SDS011;24026;49.446;8.576;2022-12-07T11:41:55;145.95;;;130.88;;
38226;SDS011;24026;49.446;8.576;2022-12-07T11:47:35;140.48;;;125.45;;
38226;SDS011;24026;49.446;8.576;2022-12-07T11:52:55;138.07;;;123.28;;
38226;SDS011;24026;49.446;8.576;2022-12-07T11:56:02;140.98;;;125.90;;
38226;SDS011;24026;49.446;8.576;2022-12-07T12:03:38;139.23;;;124.07;;
38226;SDS011;24026;49.446;8.576;2022-12-07T12:06:04;139.90;;;124.50;;
38226;SDS011;24026;49.446;8.576;2022-12-07T12:08:30;142.77;;;127.40;;
38226;SDS011;24026;49.446;8.576;2022-12-07T12:19:44;140.23;;;125.35;;
38226;SDS011;24026;49.446;8.576;2022-12-07T12:22:20;140.68;;;125.78;;
38226;SDS011;24026;49.446;8.576;2022-12-07T12:24:49;142.80;;;127.90;;
38226;SDS011;24026;49.446;8.576;2022-12-07T12:29:57;141.68;;;126.82;;
38226;SDS011;24026;49.446;8.576;2022-12-07T12:32:24;154.85;;;129.15;;
38226;SDS011;24026;49.446;8.576;2022-12-07T12:35:17;144.48;;;128.70;;
38226;SDS011;24026;49.446;8.576;2022-12-07T12:37:47;144.25;;;127.50;;
38226;SDS011;24026;49.446;8.576;2022-12-07T12:42:47;142.77;;;127.28;;
38226;SDS011;24026;49.446;8.576;2022-12-07T12:45:28;145.43;;;129.63;;
38226;SDS011;24026;49.446;8.576;2022-12-07T12:50:39;143.48;;;127.68;;
38226;SDS011;24026;49.446;8.576;2022-12-07T12:53:45;141.85;;;126.22;;
38226;SDS011;24026;49.446;8.576;2022-12-07T12:56:05;143.38;;;128.02;;
38226;SDS011;24026;49.446;8.576;2022-12-07T12:59:39;141.38;;;126.13;;
38226;SDS011;24026;49.446;8.576;2022-12-07T13:01:46;143.15;;;127.75;;
38226;SDS011;24026;49.446;8.576;2022-12-07T13:07:12;144.13;;;128.68;;
38226;SDS011;24026;49.446;8.576;2022-12-07T13:09:56;143.27;;;127.47;;
38226;SDS011;24026;49.446;8.576;2022-12-07T13:12:16;145.25;;;129.35;;
38226;SDS011;24026;49.446;8.576;2022-12-07T13:14:41;145.10;;;129.40;;
38226;SDS011;24026;49.446;8.576;2022-12-07T13:19:55;145.32;;;129.25;;
38226;SDS011;24026;49.446;8.576;2022-12-07T13:22:35;143.98;;;128.20;;
38226;SDS011;24026;49.446;8.576;2022-12-07T13:27:59;150.60;;;134.60;;
38226;SDS011;24026;49.446;8.576;2022-12-07T13:30:29;149.07;;;133.45;;
38226;SDS011;24026;49.446;8.576;2022-12-07T13:32:51;149.13;;;133.32;;
38226;SDS011;24026;49.446;8.576;2022-12-07T13:37:55;146.27;;;130.27;;
38226;SDS011;24026;49.446;8.576;2022-12-07T13:40:21;145.55;;;129.65;;
38226;SDS011;24026;49.446;8.576;2022-12-07T13:42:43;148.85;;;133.05;;
38226;SDS011;24026;49.446;8.576;2022-12-07T13:48:15;144.13;;;128.45;;
38226;SDS011;24026;49.446;8.576;2022-12-07T13:50:36;143.48;;;127.95;;
38226;SDS011;24026;49.446;8.576;2022-12-07T13:52:57;146.07;;;130.20;;
38226;SDS011;24026;49.446;8.576;2022-12-07T13:55:21;145.07;;;129.27;;
38226;SDS011;24026;49.446;8.576;2022-12-07T13:57:42;143.77;;;128.27;;
38226;SDS011;24026;49.446;8.576;2022-12-07T14:00:15;143.00;;;127.68;;
38226;SDS011;24026;49.446;8.576;2022-12-07T14:02:53;143.75;;;128.05;;
38226;SDS011;24026;49.446;8.576;2022-12-07T14:05:15;144.32;;;128.45;;
38226;SDS011;24026;49.446;8.576;2022-12-07T14:10:53;157.77;;;129.07;;
38226;SDS011;24026;49.446;8.576;2022-12-07T14:16:00;145.18;;;129.27;;
38226;SDS011;24026;49.446;8.576;2022-12-07T14:18:40;156.68;;;131.82;;
38226;SDS011;24026;49.446;8.576;2022-12-07T14:21:14;152.40;;;130.90;;
38226;SDS011;24026;49.446;8.576;2022-12-07T14:23:38;146.27;;;130.32;;
38226;SDS011;24026;49.446;8.576;2022-12-07T14:26:12;149.20;;;133.07;;
38226;SDS011;24026;49.446;8.576;2022-12-07T14:28:36;148.40;;;132.10;;
38226;SDS011;24026;49.446;8.576;2022-12-07T14:30:59;149.73;;;133.73;;
38226;SDS011;24026;49.446;8.576;2022-12-07T14:33:21;147.98;;;132.18;;
38226;SDS011;24026;49.446;8.576;2022-12-07T14:35:43;151.05;;;134.90;;
38226;SDS011;24026;49.446;8.576;2022-12-07T14:38:03;149.07;;;133.15;;
38226;SDS011;24026;49.446;8.576;2022-12-07T14:40:26;148.63;;;132.82;;
38226;SDS011;24026;49.446;8.576;2022-12-07T14:42:50;150.40;;;134.27;;
38226;SDS011;24026;49.446;8.576;2022-12-07T14:45:15;148.75;;;132.55;;
38226;SDS011;24026;49.446;8.576;2022-12-07T14:47:37;152.77;;;136.32;;
38226;SDS011;24026;49.446;8.576;2022-12-07T14:49:59;154.00;;;137.55;;
38226;SDS011;24026;49.446;8.576;2022-12-07T14:52:21;155.32;;;138.23;;
38226;SDS011;24026;49.446;8.576;2022-12-07T14:54:44;158.80;;;141.65;;
38226;SDS011;24026;49.446;8.576;2022-12-07T14:57:06;157.00;;;140.35;;
38226;SDS011;24026;49.446;8.576;2022-12-07T14:59:30;161.00;;;143.20;;
38226;SDS011;24026;49.446;8.576;2022-12-07T15:01:51;157.98;;;140.68;;
38226;SDS011;24026;49.446;8.576;2022-12-07T15:04:12;157.63;;;140.50;;
38226;SDS011;24026;49.446;8.576;2022-12-07T15:06:33;159.38;;;141.93;;
38226;SDS011;24026;49.446;8.576;2022-12-07T15:08:53;161.23;;;143.80;;
38226;SDS011;24026;49.446;8.576;2022-12-07T15:11:15;162.52;;;145.07;;
38226;SDS011;24026;49.446;8.576;2022-12-07T15:13:37;159.63;;;142.30;;
38226;SDS011;24026;49.446;8.576;2022-12-07T15:16:18;164.38;;;146.63;;
38226;SDS011;24026;49.446;8.576;2022-12-07T15:18:40;165.18;;;147.25;;
38226;SDS011;24026;49.446;8.576;2022-12-07T15:21:02;168.20;;;149.90;;
38226;SDS011;24026;49.446;8.576;2022-12-07T15:23:24;168.38;;;150.48;;
38226;SDS011;24026;49.446;8.576;2022-12-07T15:25:46;170.88;;;152.68;;
38226;SDS011;24026;49.446;8.576;2022-12-07T15:28:09;170.68;;;152.02;;
38226;SDS011;24026;49.446;8.576;2022-12-07T15:30:31;170.43;;;151.90;;
38226;SDS011;24026;49.446;8.576;2022-12-07T15:32:51;168.73;;;150.57;;
38226;SDS011;24026;49.446;8.576;2022-12-07T15:35:12;168.60;;;150.63;;
38226;SDS011;24026;49.446;8.576;2022-12-07T15:37:34;171.57;;;153.18;;
38226;SDS011;24026;49.446;8.576;2022-12-07T15:39:56;170.18;;;151.55;;